createdAt,value
2023-05-12T00:04:17.902Z,100989.89
2023-05-12T00:09:24.249Z,100990.90
2023-05-12T00:14:27.708Z,100992.10
2023-05-12T00:19:31.275Z,100992.94
2023-05-12T00:24:34.832Z,100992.54
2023-05-12T00:29:38.229Z,100997.36
2023-05-12T00:34:42.340Z,100996.63
2023-05-12T00:39:56.277Z,100999.02
2023-05-12T00:45:00.065Z,101000.52
2023-05-12T00:50:07.632Z,101004.12
2023-05-12T00:55:14.407Z,101007.20
2023-05-12T01:00:18.846Z,101010.25
2023-05-12T01:05:30.723Z,101013.47
2023-05-12T01:10:34.479Z,101017.39
2023-05-12T01:15:46.154Z,101020.25
2023-05-12T01:20:56.667Z,101023.81
2023-05-12T01:26:20.780Z,101028.61
2023-05-12T01:31:24.837Z,101025.18
2023-05-12T01:36:47.134Z,101025.77
2023-05-12T01:42:10.941Z,101029.84
2023-05-12T01:47:15.992Z,101031.10
2023-05-12T01:52:26.105Z,101034.13
2023-05-12T01:57:29.811Z,101034.42
2023-05-12T02:02:35.676Z,101035.05
2023-05-12T02:07:39.268Z,101032.48
2023-05-12T02:12:42.937Z,101031.15
2023-05-12T02:17:46.476Z,101028.98
2023-05-12T02:22:50.608Z,101037.75
2023-05-12T02:27:54.000Z,101039.03
2023-05-12T02:32:57.687Z,101041.69
2023-05-12T02:38:01.260Z,101048.89
2023-05-12T02:43:05.071Z,101049.11
2023-05-12T02:48:08.889Z,101050.96
2023-05-12T02:53:12.361Z,101054.67
2023-05-12T02:58:15.907Z,101058.37
2023-05-12T03:03:19.213Z,101061.89
2023-05-12T03:08:23.066Z,101059.31
2023-05-12T03:13:26.528Z,101057.23
2023-05-12T03:18:33.323Z,101056.17
2023-05-12T03:23:40.405Z,101062.09
2023-05-12T03:28:43.593Z,101057.05
2023-05-12T03:33:46.957Z,101057.20
2023-05-12T03:38:50.642Z,101062.55
2023-05-12T03:44:14.405Z,101070.70
2023-05-12T03:49:17.899Z,101075.00
2023-05-12T03:54:24.806Z,101072.66
2023-05-12T03:59:31.848Z,101074.98
2023-05-12T04:04:35.248Z,101084.47
2023-05-12T04:09:38.457Z,101088.02
2023-05-12T04:14:43.413Z,101088.58
2023-05-12T04:19:50.503Z,101093.81
2023-05-12T04:24:53.975Z,101095.16
2023-05-12T04:29:58.206Z,101093.16
2023-05-12T04:35:02.003Z,101091.84
2023-05-12T04:40:08.243Z,101093.65
2023-05-12T04:45:15.836Z,101096.39
2023-05-12T04:50:19.912Z,101099.86
2023-05-12T04:55:23.831Z,101101.55
2023-05-12T05:00:27.297Z,101102.67
2023-05-12T05:05:31.726Z,101106.52
2023-05-12T05:10:35.688Z,101111.28
2023-05-12T05:15:39.649Z,101114.83
2023-05-12T05:20:45.648Z,101118.15
2023-05-12T05:26:09.085Z,101119.67
2023-05-12T05:31:18.923Z,101125.21
2023-05-12T05:36:23.604Z,101126.77
2023-05-12T05:41:27.166Z,101130.27
2023-05-12T05:46:31.363Z,101129.81
2023-05-12T05:51:34.724Z,101138.75
2023-05-12T05:56:37.940Z,101133.38
2023-05-12T06:01:41.520Z,101135.21
2023-05-12T06:06:45.449Z,101137.23
2023-05-12T06:11:48.752Z,101138.48
2023-05-12T06:16:52.311Z,101144.29
2023-05-12T06:21:55.568Z,101145.25
2023-05-12T06:26:58.818Z,101145.13
2023-05-12T06:32:02.261Z,101144.58
2023-05-12T06:37:06.170Z,101147.01
2023-05-12T06:42:09.547Z,101146.45
2023-05-12T06:47:17.392Z,101154.69
2023-05-12T06:52:24.010Z,101149.15
2023-05-12T06:57:27.400Z,101153.30
2023-05-12T07:02:31.018Z,101151.48
2023-05-12T07:07:36.185Z,101148.63
2023-05-12T07:12:39.659Z,101148.87
2023-05-12T07:17:42.982Z,101151.27
2023-05-12T07:22:46.353Z,101150.97
2023-05-12T07:27:50.649Z,101152.00
2023-05-12T07:32:54.553Z,101153.04
2023-05-12T07:37:58.109Z,101152.98
2023-05-12T07:43:02.824Z,101152.66
2023-05-12T07:48:06.376Z,101149.54
2023-05-12T07:53:12.692Z,101151.45
2023-05-12T07:58:15.943Z,101155.17
2023-05-12T08:03:19.281Z,101149.02
2023-05-12T08:08:22.690Z,101144.60
2023-05-12T08:13:26.678Z,101146.95
2023-05-12T08:18:30.152Z,101154.20
2023-05-12T08:23:33.717Z,101151.58
2023-05-12T08:28:37.107Z,101150.73
2023-05-12T08:33:40.643Z,101147.58
2023-05-12T08:38:46.511Z,101148.27
2023-05-12T08:43:52.300Z,101156.92
2023-05-12T08:48:56.496Z,101154.83
2023-05-12T08:53:59.796Z,101149.16
2023-05-12T08:59:03.450Z,101147.33
2023-05-12T09:04:07.481Z,101140.91
2023-05-12T09:09:15.731Z,101140.73
2023-05-12T09:14:25.455Z,101140.45
2023-05-12T09:19:29.778Z,101146.21
2023-05-12T09:24:41.320Z,101151.63
2023-05-12T09:29:59.011Z,101142.63
2023-05-12T09:35:06.555Z,101137.66
2023-05-12T09:40:11.638Z,101137.95
2023-05-12T09:45:14.881Z,101129.03
2023-05-12T09:50:19.205Z,101138.25
2023-05-12T09:55:23.005Z,101132.11
2023-05-12T10:00:36.996Z,101130.11
2023-05-12T10:05:56.438Z,101130.71
2023-05-12T10:11:02.083Z,101125.15
2023-05-12T10:16:07.198Z,101127.65
2023-05-12T10:21:12.593Z,101118.58
2023-05-12T10:26:17.769Z,101111.99
2023-05-12T10:31:22.516Z,101113.48
2023-05-12T10:36:26.130Z,101112.88
2023-05-12T10:41:31.550Z,101119.35
2023-05-12T10:46:37.548Z,101112.42
2023-05-12T10:51:43.982Z,101112.34
2023-05-12T10:56:48.349Z,101108.48
2023-05-12T11:02:07.881Z,101107.16
2023-05-12T11:07:14.292Z,101113.17
2023-05-12T11:12:17.901Z,101113.15
2023-05-12T11:17:21.249Z,101092.95
2023-05-12T11:22:24.829Z,101108.80
2023-05-12T11:27:28.281Z,101097.79
2023-05-12T11:32:31.847Z,101094.88
2023-05-12T11:37:40.034Z,101098.64
2023-05-12T11:42:48.424Z,101094.11
2023-05-12T11:47:53.603Z,101096.36
2023-05-12T11:52:57.928Z,101103.46
2023-05-12T11:58:03.316Z,101089.23
2023-05-12T12:03:09.005Z,101090.36
2023-05-12T12:08:18.521Z,101094.23
2023-05-12T12:13:23.799Z,101097.17
2023-05-12T12:18:27.172Z,101091.14
2023-05-12T12:23:37.823Z,101084.27
2023-05-12T12:28:51.077Z,101079.23
2023-05-12T12:33:54.645Z,101080.73
2023-05-12T12:38:57.807Z,101085.21
2023-05-12T12:44:03.745Z,101087.83
2023-05-12T12:49:06.983Z,101081.02
2023-05-12T12:54:10.359Z,101069.45
2023-05-12T12:59:13.655Z,101074.05
2023-05-12T13:04:19.740Z,101067.41
2023-05-12T13:09:23.170Z,101062.14
2023-05-12T13:14:26.678Z,101062.86
2023-05-12T13:19:30.330Z,101053.17
2023-05-12T13:24:33.738Z,101053.38
2023-05-12T13:29:37.331Z,101051.45
2023-05-12T13:34:41.896Z,101050.63
2023-05-12T13:39:45.394Z,101038.52
2023-05-12T13:44:49.445Z,101040.70
2023-05-12T13:49:52.976Z,101037.80
2023-05-12T13:54:56.877Z,101034.19
2023-05-12T14:00:00.963Z,101029.71
2023-05-12T14:05:04.512Z,101034.36
2023-05-12T14:10:08.068Z,101029.50
2023-05-12T14:20:23.038Z,101029.88
2023-05-12T14:25:30.911Z,101029.61
2023-05-12T14:30:40.468Z,101034.10
2023-05-12T14:35:52.910Z,101032.30
2023-05-12T14:41:02.995Z,101034.32
2023-05-12T14:46:06.633Z,101027.79
2023-05-12T14:51:10.295Z,101029.27
2023-05-12T14:56:13.670Z,101024.76
2023-05-12T15:01:17.405Z,101024.55
2023-05-12T15:06:20.640Z,101023.23
2023-05-12T15:11:24.052Z,101021.75
2023-05-12T15:16:28.226Z,101022.02
2023-05-12T15:21:34.110Z,101026.97
2023-05-12T15:26:40.477Z,101021.48
2023-05-12T15:31:44.505Z,101020.09
2023-05-12T15:36:49.052Z,101023.37
2023-05-12T15:41:53.182Z,101023.64
2023-05-12T15:46:56.562Z,101022.61
2023-05-12T15:52:00.963Z,101020.97
2023-05-12T15:57:04.907Z,101024.02
2023-05-12T16:02:08.144Z,101020.34
2023-05-12T16:07:11.498Z,101019.34
2023-05-12T16:12:15.605Z,101016.29
2023-05-12T16:17:19.076Z,101016.59
2023-05-12T16:22:22.636Z,101015.56
2023-05-12T16:27:26.171Z,101015.47
2023-05-12T16:32:29.864Z,101014.45
2023-05-12T16:37:33.328Z,101011.91
2023-05-12T16:42:37.272Z,101014.33
2023-05-12T16:47:40.654Z,101013.13
2023-05-12T16:52:44.244Z,101018.77
2023-05-12T16:58:08.290Z,101022.11
2023-05-12T17:03:11.724Z,101022.36
2023-05-12T17:08:15.736Z,101027.54
2023-05-12T17:13:20.094Z,101024.84
2023-05-12T17:18:25.008Z,101024.98
2023-05-12T17:23:28.392Z,101027.27
2023-05-12T17:28:32.489Z,101028.79
2023-05-12T17:33:35.731Z,101030.94
2023-05-12T17:38:40.073Z,101034.67
2023-05-12T17:43:43.566Z,101034.87
2023-05-12T17:48:46.890Z,101036.26
2023-05-12T17:53:50.118Z,101038.73
2023-05-12T17:58:53.411Z,101040.33
2023-05-12T18:03:57.185Z,101044.65
2023-05-12T18:09:00.456Z,101048.62
2023-05-12T18:14:06.145Z,101054.98
2023-05-12T18:19:10.874Z,101061.00
2023-05-12T18:24:14.531Z,101069.20
2023-05-12T18:29:17.909Z,101074.90
2023-05-12T18:34:21.177Z,101073.20
2023-05-12T18:39:25.173Z,101076.42
2023-05-12T18:44:28.371Z,101079.14
2023-05-12T18:49:31.599Z,101084.23
2023-05-12T18:54:34.932Z,101085.13
2023-05-12T18:59:38.605Z,101086.41
2023-05-12T19:04:42.128Z,101091.18
2023-05-12T19:09:45.701Z,101090.70
2023-05-12T19:14:49.165Z,101095.73
2023-05-12T19:19:52.666Z,101097.61
2023-05-12T19:24:56.192Z,101103.61
2023-05-12T19:30:18.573Z,101105.35
2023-05-12T19:35:22.816Z,101105.36
2023-05-12T19:40:30.772Z,101108.45
2023-05-12T19:45:34.798Z,101107.52
2023-05-12T19:50:38.090Z,101113.61
2023-05-12T19:55:41.460Z,101116.86
2023-05-12T20:00:44.792Z,101117.08
2023-05-12T20:05:48.756Z,101114.63
2023-05-12T20:10:52.321Z,101114.02
2023-05-12T20:15:55.856Z,101115.08
2023-05-12T20:20:59.368Z,101120.75
2023-05-12T20:26:02.948Z,101118.84
2023-05-12T20:31:06.801Z,101118.58
2023-05-12T20:36:10.684Z,101115.86
2023-05-12T20:41:13.945Z,101112.60
2023-05-12T20:46:17.329Z,101113.19
2023-05-12T20:51:30.846Z,101116.71
2023-05-12T20:56:54.529Z,101116.38
2023-05-12T21:01:58.138Z,101117.51
2023-05-12T21:07:01.689Z,101120.48
2023-05-12T21:12:05.292Z,101118.73
2023-05-12T21:17:12.452Z,101122.70
2023-05-12T21:22:16.249Z,101121.55
2023-05-12T21:27:19.517Z,101123.08
2023-05-12T21:32:22.943Z,101126.70
2023-05-12T21:37:26.200Z,101127.67
2023-05-12T21:42:29.638Z,101129.88
2023-05-12T21:47:33.310Z,101133.13
2023-05-12T21:52:36.641Z,101131.30
2023-05-12T21:57:40.065Z,101138.38
2023-05-12T22:02:44.914Z,101140.64
2023-05-12T22:07:48.370Z,101139.28
2023-05-12T22:12:51.658Z,101137.38
2023-05-12T22:17:54.920Z,101135.34
2023-05-12T22:23:00.683Z,101133.61
2023-05-12T22:28:07.044Z,101131.87
2023-05-12T22:33:10.553Z,101137.00
2023-05-12T22:38:13.973Z,101135.74
2023-05-12T22:43:24.576Z,101135.16
2023-05-12T22:48:28.622Z,101136.27
2023-05-12T22:53:36.847Z,101136.88
2023-05-12T22:58:40.148Z,101136.75
2023-05-12T23:03:46.483Z,101135.79
2023-05-12T23:08:50.092Z,101134.70
2023-05-12T23:13:53.541Z,101134.95
2023-05-12T23:18:59.944Z,101140.40
2023-05-12T23:24:07.109Z,101141.64
2023-05-12T23:29:10.497Z,101140.66
2023-05-12T23:34:13.815Z,101138.21
2023-05-12T23:39:17.364Z,101136.66
2023-05-12T23:44:23.343Z,101132.77
2023-05-12T23:49:27.456Z,101132.29
2023-05-12T23:54:31.116Z,101124.84
2023-05-12T23:59:34.492Z,101124.64
